createdAt,value
2022-11-06T00:04:28.184Z,7.4
2022-11-06T00:10:51.199Z,7.37
2022-11-06T00:17:11.187Z,7.38
2022-11-06T00:23:34.195Z,7.38
2022-11-06T00:29:54.180Z,7.34
2022-11-06T00:36:17.191Z,7.3
2022-11-06T00:42:37.212Z,7.3
2022-11-06T00:49:00.168Z,7.3
2022-11-06T00:55:20.220Z,7.31
2022-11-06T01:01:43.349Z,7.31
2022-11-06T01:08:03.166Z,7.3
2022-11-06T01:14:26.195Z,7.35
2022-11-06T01:20:46.139Z,7.35
2022-11-06T01:33:29.170Z,7.26
2022-11-06T01:39:52.173Z,7.23
2022-11-06T01:46:12.199Z,7.18
2022-11-06T01:52:35.224Z,7.13
2022-11-06T01:58:55.217Z,7.08
2022-11-06T02:05:18.182Z,6.99
2022-11-06T02:11:38.203Z,6.91
2022-11-06T02:18:01.204Z,6.87
2022-11-06T02:24:21.177Z,6.77
2022-11-06T02:30:44.212Z,6.68
2022-11-06T02:37:04.236Z,6.66
2022-11-06T02:43:27.146Z,6.62
2022-11-06T02:49:47.249Z,6.57
2022-11-06T02:56:10.234Z,6.59
2022-11-06T03:02:30.326Z,6.59
2022-11-06T03:08:53.180Z,6.58
2022-11-06T03:15:13.185Z,6.56
2022-11-06T03:21:36.196Z,6.56
2022-11-06T03:27:56.181Z,6.56
2022-11-06T03:34:19.194Z,6.57
2022-11-06T03:40:39.139Z,6.56
2022-11-06T03:47:02.227Z,6.57
2022-11-06T03:53:22.163Z,6.58
2022-11-06T03:59:45.170Z,6.61
2022-11-06T04:06:05.179Z,6.61
2022-11-06T04:12:28.160Z,6.57
2022-11-06T04:18:48.211Z,6.56
2022-11-06T04:34:58.100Z,6.54
2022-11-06T04:41:18.399Z,6.48
2022-11-06T04:47:41.148Z,6.42
2022-11-06T04:54:01.259Z,6.38
2022-11-06T05:00:24.172Z,6.39
2022-11-06T05:06:44.209Z,6.39
2022-11-06T05:13:07.210Z,6.42
2022-11-06T05:19:27.187Z,6.44
2022-11-06T05:25:50.180Z,6.47
2022-11-06T05:32:10.250Z,6.49
2022-11-06T05:38:33.206Z,6.52
2022-11-06T05:44:53.143Z,6.53
2022-11-06T05:51:16.273Z,6.59
2022-11-06T05:57:37.343Z,6.65
2022-11-06T06:03:59.185Z,6.65
2022-11-06T06:10:19.211Z,6.65
2022-11-06T06:16:42.212Z,6.65
2022-11-06T06:23:02.160Z,6.66
2022-11-06T06:29:25.188Z,6.68
2022-11-06T06:35:45.151Z,6.67
2022-11-06T06:42:08.245Z,6.68
2022-11-06T06:48:28.195Z,6.75
2022-11-06T06:54:51.180Z,6.84
2022-11-06T07:01:11.352Z,6.94
2022-11-06T07:07:34.325Z,7.01
2022-11-06T07:13:54.184Z,7.1
2022-11-06T07:20:17.226Z,7.16
2022-11-06T07:26:37.232Z,7.25
2022-11-06T07:33:00.210Z,7.37
2022-11-06T07:39:20.216Z,7.51
2022-11-06T07:45:43.217Z,7.67
2022-11-06T07:52:03.188Z,7.86
2022-11-06T07:58:26.156Z,8.06
2022-11-06T08:04:46.328Z,8.27
2022-11-06T08:11:09.193Z,8.49
2022-11-06T08:17:29.157Z,8.72
2022-11-06T08:23:52.217Z,8.93
2022-11-06T08:30:12.180Z,9.13
2022-11-06T08:36:35.208Z,9.33
2022-11-06T08:42:55.190Z,9.54
2022-11-06T08:49:18.154Z,9.74
2022-11-06T08:55:38.490Z,9.97
2022-11-06T09:02:01.354Z,10.18
2022-11-06T09:08:21.207Z,10.39
2022-11-06T09:14:44.191Z,10.61
2022-11-06T09:21:04.237Z,10.79
2022-11-06T09:27:27.153Z,11.02
2022-11-06T09:51:09.116Z,11.54
2022-11-06T09:57:29.164Z,11.55
2022-11-06T10:03:52.153Z,11.81
2022-11-06T10:10:12.187Z,12.05
2022-11-06T10:16:35.191Z,12.18
2022-11-06T10:22:55.233Z,12.23
2022-11-06T10:29:18.421Z,12.2
2022-11-06T10:35:38.159Z,12.05
2022-11-06T10:42:01.189Z,11.91
2022-11-06T10:48:23.756Z,11.85
2022-11-06T10:54:44.175Z,11.87
2022-11-06T11:01:04.246Z,11.92
2022-11-06T11:07:27.174Z,11.81
2022-11-06T11:13:47.174Z,11.86
2022-11-06T11:20:10.160Z,11.93
2022-11-06T11:26:30.304Z,11.95
2022-11-06T11:32:53.153Z,12.04
2022-11-06T11:39:13.153Z,12.11
2022-11-06T11:45:36.230Z,12.16
2022-11-06T11:51:56.162Z,12.27
2022-11-06T11:58:19.175Z,12.52
2022-11-06T12:04:39.198Z,13.14
2022-11-06T12:11:02.152Z,13.73
2022-11-06T12:17:22.185Z,14.17
2022-11-06T12:23:45.166Z,14.42
2022-11-06T12:30:05.206Z,14.22
2022-11-06T12:36:28.169Z,14.05
2022-11-06T12:42:48.173Z,14
2022-11-06T12:49:11.198Z,13.92
2022-11-06T12:55:31.156Z,13.92
2022-11-06T13:01:54.438Z,13.74
2022-11-06T13:08:14.422Z,13.65
2022-11-06T13:14:37.153Z,13.62
2022-11-06T13:20:57.191Z,13.56
2022-11-06T13:27:20.194Z,13.37
2022-11-06T13:33:40.206Z,13.22
2022-11-06T13:40:03.186Z,13.14
2022-11-06T13:46:23.206Z,13.1
2022-11-06T13:52:46.168Z,13.09
2022-11-06T13:59:06.169Z,12.97
2022-11-06T14:05:29.194Z,12.78
2022-11-06T14:11:49.161Z,12.6
2022-11-06T14:18:12.575Z,12.4
2022-11-06T14:24:32.160Z,12.29
2022-11-06T14:31:12.612Z,12.17
2022-11-06T14:37:15.199Z,12.07
2022-11-06T14:43:38.165Z,11.94
2022-11-06T14:49:58.220Z,11.82
2022-11-06T14:56:21.189Z,11.72
2022-11-06T15:02:41.369Z,11.66
2022-11-06T15:19:54.099Z,11.55
2022-11-06T15:26:14.144Z,11.45
2022-11-06T15:32:37.190Z,11.38
2022-11-06T15:38:57.202Z,11.3
2022-11-06T15:45:20.136Z,11.22
2022-11-06T15:51:40.205Z,11.07
2022-11-06T15:58:03.164Z,10.97
2022-11-06T16:04:23.436Z,10.89
2022-11-06T16:10:46.221Z,10.83
2022-11-06T16:17:06.343Z,10.79
2022-11-06T16:23:34.804Z,10.71
2022-11-06T16:29:49.191Z,10.57
2022-11-06T16:36:12.173Z,10.41
2022-11-06T16:42:32.271Z,10.13
2022-11-06T16:48:55.211Z,9.95
2022-11-06T16:55:16.577Z,9.83
2022-11-06T17:01:38.288Z,9.77
2022-11-06T17:07:58.196Z,9.73
2022-11-06T17:14:21.372Z,9.7
2022-11-06T17:20:41.206Z,9.71
2022-11-06T17:27:04.272Z,9.69
2022-11-06T17:33:24.427Z,9.69
2022-11-06T17:39:47.307Z,9.69
2022-11-06T17:46:07.175Z,9.68
2022-11-06T17:52:30.240Z,9.66
2022-11-06T17:58:50.211Z,9.66
2022-11-06T18:05:13.182Z,9.67
2022-11-06T18:11:33.212Z,9.65
2022-11-06T18:17:56.160Z,9.66
2022-11-06T18:24:16.211Z,9.7
2022-11-06T18:30:39.228Z,9.73
2022-11-06T18:36:59.168Z,9.77
2022-11-06T18:43:22.184Z,9.83
2022-11-06T18:49:42.220Z,9.89
2022-11-06T18:56:05.174Z,9.96
2022-11-06T19:02:25.321Z,10.05
2022-11-06T19:08:48.189Z,10.15
2022-11-06T19:15:08.240Z,10.23
2022-11-06T19:21:31.214Z,10.29
2022-11-06T19:27:51.196Z,10.32
2022-11-06T19:34:14.180Z,10.36
2022-11-06T19:40:34.228Z,10.41
2022-11-06T19:46:57.484Z,10.45
2022-11-06T19:53:17.146Z,10.48
2022-11-06T19:59:40.169Z,10.49
2022-11-06T20:06:03.537Z,10.52
2022-11-06T20:28:48.189Z,10.51
2022-11-06T20:35:11.146Z,10.49
2022-11-06T20:41:31.168Z,10.44
2022-11-06T20:47:54.182Z,10.44
2022-11-06T20:54:14.161Z,10.46
2022-11-06T21:00:37.204Z,10.49
2022-11-06T21:06:57.287Z,10.53
2022-11-06T21:13:20.231Z,10.56
2022-11-06T21:19:40.159Z,10.59
2022-11-06T21:26:03.268Z,10.61
2022-11-06T21:32:23.193Z,10.64
2022-11-06T21:38:46.163Z,10.65
2022-11-06T21:45:07.411Z,10.65
2022-11-06T21:51:29.149Z,10.62
2022-11-06T21:57:49.135Z,10.63
2022-11-06T22:04:12.329Z,10.64
2022-11-06T22:10:32.161Z,10.65
2022-11-06T22:16:55.161Z,10.67
2022-11-06T22:23:15.479Z,10.69
2022-11-06T22:29:38.147Z,10.73
2022-11-06T22:35:58.206Z,10.75
2022-11-06T22:42:21.189Z,10.78
2022-11-06T22:48:41.161Z,10.79
2022-11-06T22:55:04.178Z,10.79
2022-11-06T23:20:35.209Z,10.3
2022-11-06T23:26:55.148Z,10.21
2022-11-06T23:33:18.235Z,10.16
2022-11-06T23:39:38.177Z,10.15
2022-11-06T23:46:01.209Z,10.22
2022-11-06T23:52:21.160Z,10.3
2022-11-06T23:58:44.196Z,10.38
